Accueil
METAR-TAF:

METAR-TAF

Aéroports :

Aéroport international des îles Marshall

Majuro, Îles Marshall

latitude: 07-04N, longitude: 171-17E, altitude: 2 m

Observation

Le bulletin a été fait il y a 22 minutes, à 20:52 UTC
Vent 9 kt de est
Température 29°C
Humidité 79%
Pression 1011 hPa
Visibilité: 24.1 km
Quelques nuages à une hauteur de 1500 ft
Nuages épars à une hauteur de 5000 ft
Nuages fragmentés à une hauteur de 30000 ft

METAR: PKMJ 172052Z 09009KT 15SM FEW015 SCT050 BKN300 29/25 A2986

Heure: 09:14 (21:14 UTC)

Prévision

Le bulletin a été fait il y a 3 heures et 36 minutes, à 17:38 UTC
Prévision valable du 17 à 18 UTC au 18 à 18 UTC
Vent 8 kt de est
Visibilité: 10 km
Nuages épars à une hauteur de 1500 ft
Nuages épars à une hauteur de 5000 ft

TAF: PKMJ 171738Z 1718/1818 09008KT P6SM SCT015 SCT050

Observations et prévisions météorologiques de plus de 4000 aéroports (messages METAR et TAF).

Les stations disponibles sont représentées par des disques jaunes et rouges sur la carte.

Passer la souris dessus pour voir le nom de la station.

Cliquer dessus pour voir les observations et prévisions météorologiques.

Pour changer de carte: cliquez sur les boutons verts avec une croix noire pour zoomer, sur le bouton vert avec un tiret pour effectuer un zoom arrière, ou sur les flèches vertes pour les cartes adjacentes.


METAR-TAF: